Brighouse, United Kingdom
Current Conditions -  °F | °C
As of 2:20 PM on Thursday 30 Oct 2014 (Local Time) from EGNM Reporting Station
Broken Clouds Broken Clouds  
Wind Chill: 59°   Ceiling: 3000
Heat Index: 59°   Visibility: 6mi
Dew Point: 57°   Wind: 6mph
Humidity: 94%   Direction: 220°SW
Pressure: 29.97"   Gusts: NA
Location:  53.7°N, 1.78°W
Report Text: EGNM 301420Z 22005KT 190V250 9999 FEW015 BKN030 15/14 Q1015
Loading
Personal Weather Stations






























Interactive Weather Map
Tropical Storm Tracking
New forecast layout! Learn more

10-Day Weather Forecast

Advertisements
Track Severe Weather on mobile